RJTL(METAR)
08/13 14:00
METAR RJTL 130500Z 03005KT 360V080 9999 SCT030 BKN/// 35/24 Q1006
RMK 4CU030 A2973=
戻る
トップページへ戻る
IMOC Co,.Ltd.